sensor_id;sensor_type;location;lat;lon;timestamp;P1;durP1;ratioP1;P2;durP2;ratioP2
60241;SDS011;46103;52.076;113.488;2024-03-22T00:02:17;28.63;;;14.35;;
60241;SDS011;46103;52.076;113.488;2024-03-22T00:05:20;19.70;;;12.05;;
60241;SDS011;46103;52.076;113.488;2024-03-22T00:11:25;31.20;;;13.55;;
60241;SDS011;46103;52.076;113.488;2024-03-22T00:14:27;25.75;;;14.20;;
60241;SDS011;46103;52.076;113.488;2024-03-22T00:17:29;26.58;;;13.82;;
60241;SDS011;46103;52.076;113.488;2024-03-22T00:20:32;21.95;;;12.32;;
60241;SDS011;46103;52.076;113.488;2024-03-22T00:23:35;24.58;;;14.10;;
60241;SDS011;46103;52.076;113.488;2024-03-22T00:26:37;28.17;;;14.40;;
60241;SDS011;46103;52.076;113.488;2024-03-22T00:29:40;26.20;;;15.95;;
60241;SDS011;46103;52.076;113.488;2024-03-22T00:32:42;35.05;;;18.60;;
60241;SDS011;46103;52.076;113.488;2024-03-22T00:35:47;29.55;;;15.88;;
60241;SDS011;46103;52.076;113.488;2024-03-22T00:38:49;33.83;;;17.50;;
60241;SDS011;46103;52.076;113.488;2024-03-22T00:41:51;31.25;;;16.55;;
60241;SDS011;46103;52.076;113.488;2024-03-22T00:44:53;30.65;;;16.27;;
60241;SDS011;46103;52.076;113.488;2024-03-22T00:47:56;18.65;;;10.25;;
60241;SDS011;46103;52.076;113.488;2024-03-22T00:50:58;26.30;;;13.82;;
60241;SDS011;46103;52.076;113.488;2024-03-22T00:57:03;23.63;;;13.45;;
60241;SDS011;46103;52.076;113.488;2024-03-22T01:00:06;27.02;;;14.68;;
60241;SDS011;46103;52.076;113.488;2024-03-22T01:03:09;29.90;;;14.50;;
60241;SDS011;46103;52.076;113.488;2024-03-22T01:06:12;26.25;;;13.70;;
60241;SDS011;46103;52.076;113.488;2024-03-22T01:09:13;24.17;;;14.10;;
60241;SDS011;46103;52.076;113.488;2024-03-22T01:12:16;23.83;;;13.32;;
60241;SDS011;46103;52.076;113.488;2024-03-22T01:15:18;24.25;;;13.05;;
60241;SDS011;46103;52.076;113.488;2024-03-22T01:18:20;19.92;;;11.30;;
60241;SDS011;46103;52.076;113.488;2024-03-22T01:21:22;17.77;;;11.10;;
60241;SDS011;46103;52.076;113.488;2024-03-22T01:24:26;19.42;;;9.88;;
60241;SDS011;46103;52.076;113.488;2024-03-22T01:27:30;17.70;;;9.18;;
60241;SDS011;46103;52.076;113.488;2024-03-22T01:33:35;15.00;;;8.45;;
60241;SDS011;46103;52.076;113.488;2024-03-22T01:36:37;15.68;;;8.80;;
60241;SDS011;46103;52.076;113.488;2024-03-22T01:39:39;20.10;;;11.07;;
60241;SDS011;46103;52.076;113.488;2024-03-22T01:42:42;20.05;;;11.32;;
60241;SDS011;46103;52.076;113.488;2024-03-22T01:45:44;20.45;;;11.18;;
60241;SDS011;46103;52.076;113.488;2024-03-22T01:48:47;22.38;;;10.13;;
60241;SDS011;46103;52.076;113.488;2024-03-22T01:51:49;20.08;;;10.98;;
60241;SDS011;46103;52.076;113.488;2024-03-22T01:54:52;22.02;;;12.18;;
60241;SDS011;46103;52.076;113.488;2024-03-22T01:57:55;18.15;;;11.18;;
60241;SDS011;46103;52.076;113.488;2024-03-22T02:00:57;16.15;;;10.05;;
60241;SDS011;46103;52.076;113.488;2024-03-22T02:04:00;17.58;;;9.50;;
60241;SDS011;46103;52.076;113.488;2024-03-22T02:07:03;15.98;;;9.30;;
60241;SDS011;46103;52.076;113.488;2024-03-22T02:10:05;17.92;;;9.63;;
60241;SDS011;46103;52.076;113.488;2024-03-22T02:13:09;20.13;;;10.50;;
60241;SDS011;46103;52.076;113.488;2024-03-22T02:16:12;14.30;;;8.80;;
60241;SDS011;46103;52.076;113.488;2024-03-22T02:19:14;19.75;;;9.20;;
60241;SDS011;46103;52.076;113.488;2024-03-22T02:22:16;17.50;;;8.15;;
60241;SDS011;46103;52.076;113.488;2024-03-22T02:25:19;15.63;;;7.68;;
60241;SDS011;46103;52.076;113.488;2024-03-22T02:28:21;15.82;;;7.97;;
60241;SDS011;46103;52.076;113.488;2024-03-22T02:31:24;16.10;;;8.70;;
60241;SDS011;46103;52.076;113.488;2024-03-22T02:34:26;15.13;;;7.10;;
60241;SDS011;46103;52.076;113.488;2024-03-22T02:37:29;11.80;;;6.50;;
60241;SDS011;46103;52.076;113.488;2024-03-22T02:40:32;13.45;;;5.68;;
60241;SDS011;46103;52.076;113.488;2024-03-22T02:43:35;13.20;;;6.25;;
60241;SDS011;46103;52.076;113.488;2024-03-22T02:46:36;11.60;;;5.38;;
60241;SDS011;46103;52.076;113.488;2024-03-22T02:49:38;16.42;;;6.65;;
60241;SDS011;46103;52.076;113.488;2024-03-22T02:52:40;10.10;;;5.35;;
60241;SDS011;46103;52.076;113.488;2024-03-22T02:55:43;9.93;;;5.25;;
60241;SDS011;46103;52.076;113.488;2024-03-22T02:58:45;13.90;;;5.32;;
60241;SDS011;46103;52.076;113.488;2024-03-22T03:01:48;9.65;;;4.57;;
60241;SDS011;46103;52.076;113.488;2024-03-22T03:04:49;9.00;;;4.18;;
60241;SDS011;46103;52.076;113.488;2024-03-22T03:07:52;10.35;;;4.47;;
60241;SDS011;46103;52.076;113.488;2024-03-22T03:10:53;7.38;;;4.28;;
60241;SDS011;46103;52.076;113.488;2024-03-22T03:13:55;7.72;;;4.03;;
60241;SDS011;46103;52.076;113.488;2024-03-22T03:16:57;7.93;;;3.85;;
60241;SDS011;46103;52.076;113.488;2024-03-22T03:20:00;6.25;;;3.20;;
60241;SDS011;46103;52.076;113.488;2024-03-22T03:26:05;6.93;;;2.75;;
60241;SDS011;46103;52.076;113.488;2024-03-22T03:29:07;8.98;;;2.92;;
60241;SDS011;46103;52.076;113.488;2024-03-22T03:32:10;8.70;;;3.85;;
60241;SDS011;46103;52.076;113.488;2024-03-22T03:35:13;9.98;;;3.60;;
60241;SDS011;46103;52.076;113.488;2024-03-22T03:38:15;7.25;;;3.55;;
60241;SDS011;46103;52.076;113.488;2024-03-22T03:41:17;6.57;;;3.65;;
60241;SDS011;46103;52.076;113.488;2024-03-22T03:44:19;4.95;;;2.35;;
60241;SDS011;46103;52.076;113.488;2024-03-22T03:47:21;6.22;;;2.60;;
60241;SDS011;46103;52.076;113.488;2024-03-22T03:50:22;4.95;;;2.60;;
60241;SDS011;46103;52.076;113.488;2024-03-22T03:56:26;5.35;;;2.33;;
60241;SDS011;46103;52.076;113.488;2024-03-22T03:59:28;4.60;;;2.28;;
60241;SDS011;46103;52.076;113.488;2024-03-22T04:02:31;3.25;;;1.60;;
60241;SDS011;46103;52.076;113.488;2024-03-22T04:05:33;4.20;;;1.75;;
60241;SDS011;46103;52.076;113.488;2024-03-22T04:08:35;3.50;;;1.38;;
60241;SDS011;46103;52.076;113.488;2024-03-22T04:11:37;4.28;;;1.92;;
60241;SDS011;46103;52.076;113.488;2024-03-22T04:17:42;4.93;;;2.40;;
60241;SDS011;46103;52.076;113.488;2024-03-22T04:23:56;8.35;;;3.45;;
60241;SDS011;46103;52.076;113.488;2024-03-22T04:27:00;8.77;;;3.72;;
60241;SDS011;46103;52.076;113.488;2024-03-22T04:30:02;4.35;;;1.80;;
60241;SDS011;46103;52.076;113.488;2024-03-22T04:33:05;4.82;;;2.50;;
60241;SDS011;46103;52.076;113.488;2024-03-22T04:36:08;6.07;;;2.20;;
60241;SDS011;46103;52.076;113.488;2024-03-22T04:39:10;5.10;;;1.80;;
60241;SDS011;46103;52.076;113.488;2024-03-22T04:42:14;6.72;;;2.10;;
60241;SDS011;46103;52.076;113.488;2024-03-22T04:45:17;4.47;;;1.95;;
60241;SDS011;46103;52.076;113.488;2024-03-22T04:48:20;6.38;;;2.20;;
60241;SDS011;46103;52.076;113.488;2024-03-22T04:51:23;4.47;;;1.40;;
60241;SDS011;46103;52.076;113.488;2024-03-22T04:54:25;4.00;;;1.30;;
60241;SDS011;46103;52.076;113.488;2024-03-22T04:57:28;3.83;;;1.30;;
60241;SDS011;46103;52.076;113.488;2024-03-22T05:00:30;4.68;;;1.48;;
60241;SDS011;46103;52.076;113.488;2024-03-22T05:03:31;4.22;;;1.48;;
60241;SDS011;46103;52.076;113.488;2024-03-22T05:06:34;5.00;;;1.95;;
60241;SDS011;46103;52.076;113.488;2024-03-22T05:09:38;9.77;;;2.58;;
60241;SDS011;46103;52.076;113.488;2024-03-22T05:12:40;8.50;;;3.00;;
60241;SDS011;46103;52.076;113.488;2024-03-22T05:15:41;8.65;;;2.25;;
60241;SDS011;46103;52.076;113.488;2024-03-22T05:18:43;2.63;;;0.95;;
60241;SDS011;46103;52.076;113.488;2024-03-22T05:21:45;4.10;;;1.02;;
60241;SDS011;46103;52.076;113.488;2024-03-22T05:24:47;6.05;;;2.47;;
60241;SDS011;46103;52.076;113.488;2024-03-22T05:27:48;3.83;;;1.23;;
60241;SDS011;46103;52.076;113.488;2024-03-22T05:30:51;2.97;;;1.17;;
60241;SDS011;46103;52.076;113.488;2024-03-22T05:33:52;2.30;;;0.57;;
60241;SDS011;46103;52.076;113.488;2024-03-22T05:36:54;1.42;;;0.45;;
60241;SDS011;46103;52.076;113.488;2024-03-22T05:39:57;2.22;;;0.60;;
60241;SDS011;46103;52.076;113.488;2024-03-22T05:46:01;1.73;;;0.40;;
60241;SDS011;46103;52.076;113.488;2024-03-22T05:49:03;1.50;;;0.40;;
60241;SDS011;46103;52.076;113.488;2024-03-22T05:52:06;1.52;;;0.38;;
60241;SDS011;46103;52.076;113.488;2024-03-22T05:55:08;2.00;;;0.60;;
60241;SDS011;46103;52.076;113.488;2024-03-22T05:58:11;3.22;;;1.00;;
60241;SDS011;46103;52.076;113.488;2024-03-22T06:01:13;4.45;;;1.48;;
60241;SDS011;46103;52.076;113.488;2024-03-22T06:04:15;3.78;;;0.80;;
60241;SDS011;46103;52.076;113.488;2024-03-22T06:07:17;4.90;;;1.35;;
60241;SDS011;46103;52.076;113.488;2024-03-22T06:10:20;3.90;;;1.33;;
60241;SDS011;46103;52.076;113.488;2024-03-22T06:13:22;1.33;;;0.50;;
60241;SDS011;46103;52.076;113.488;2024-03-22T06:16:24;3.70;;;0.95;;
60241;SDS011;46103;52.076;113.488;2024-03-22T06:19:27;2.00;;;0.88;;
60241;SDS011;46103;52.076;113.488;2024-03-22T06:25:32;1.55;;;0.60;;
60241;SDS011;46103;52.076;113.488;2024-03-22T06:28:34;1.60;;;0.57;;
60241;SDS011;46103;52.076;113.488;2024-03-22T06:31:37;3.03;;;1.02;;
60241;SDS011;46103;52.076;113.488;2024-03-22T06:34:39;0.82;;;0.30;;
60241;SDS011;46103;52.076;113.488;2024-03-22T06:37:42;2.15;;;0.70;;
60241;SDS011;46103;52.076;113.488;2024-03-22T06:40:44;1.45;;;0.43;;
60241;SDS011;46103;52.076;113.488;2024-03-22T06:43:47;2.05;;;0.55;;
60241;SDS011;46103;52.076;113.488;2024-03-22T06:46:49;3.45;;;0.90;;
60241;SDS011;46103;52.076;113.488;2024-03-22T06:49:51;1.70;;;0.70;;
60241;SDS011;46103;52.076;113.488;2024-03-22T06:52:54;2.28;;;0.70;;
60241;SDS011;46103;52.076;113.488;2024-03-22T06:55:56;4.88;;;1.70;;
60241;SDS011;46103;52.076;113.488;2024-03-22T06:58:58;4.18;;;0.70;;
60241;SDS011;46103;52.076;113.488;2024-03-22T07:01:59;7.53;;;1.90;;
60241;SDS011;46103;52.076;113.488;2024-03-22T07:05:01;4.55;;;0.90;;
60241;SDS011;46103;52.076;113.488;2024-03-22T07:08:04;3.25;;;1.02;;
60241;SDS011;46103;52.076;113.488;2024-03-22T07:14:10;3.92;;;1.05;;
60241;SDS011;46103;52.076;113.488;2024-03-22T07:17:12;4.20;;;1.02;;
60241;SDS011;46103;52.076;113.488;2024-03-22T07:20:15;3.55;;;0.95;;
60241;SDS011;46103;52.076;113.488;2024-03-22T07:23:17;3.78;;;0.88;;
60241;SDS011;46103;52.076;113.488;2024-03-22T07:26:20;2.70;;;0.80;;
60241;SDS011;46103;52.076;113.488;2024-03-22T07:29:22;1.92;;;0.80;;
60241;SDS011;46103;52.076;113.488;2024-03-22T07:32:25;2.35;;;0.70;;
60241;SDS011;46103;52.076;113.488;2024-03-22T07:35:28;3.88;;;1.20;;
60241;SDS011;46103;52.076;113.488;2024-03-22T07:38:30;4.70;;;1.13;;
60241;SDS011;46103;52.076;113.488;2024-03-22T07:41:33;4.30;;;1.88;;
60241;SDS011;46103;52.076;113.488;2024-03-22T07:44:36;4.40;;;1.00;;
60241;SDS011;46103;52.076;113.488;2024-03-22T07:50:42;4.32;;;1.90;;
60241;SDS011;46103;52.076;113.488;2024-03-22T07:53:44;4.22;;;1.45;;
60241;SDS011;46103;52.076;113.488;2024-03-22T07:56:47;4.35;;;1.75;;
60241;SDS011;46103;52.076;113.488;2024-03-22T07:59:49;2.30;;;1.05;;
60241;SDS011;46103;52.076;113.488;2024-03-22T08:02:52;3.67;;;1.02;;
60241;SDS011;46103;52.076;113.488;2024-03-22T08:05:54;3.35;;;1.33;;
60241;SDS011;46103;52.076;113.488;2024-03-22T08:08:57;1.70;;;0.80;;
60241;SDS011;46103;52.076;113.488;2024-03-22T08:11:58;5.35;;;1.50;;
60241;SDS011;46103;52.076;113.488;2024-03-22T08:15:01;6.28;;;1.85;;
60241;SDS011;46103;52.076;113.488;2024-03-22T08:18:03;4.63;;;1.30;;
60241;SDS011;46103;52.076;113.488;2024-03-22T08:21:05;7.97;;;1.80;;
60241;SDS011;46103;52.076;113.488;2024-03-22T08:24:07;4.13;;;0.98;;
60241;SDS011;46103;52.076;113.488;2024-03-22T08:27:09;6.32;;;1.25;;
60241;SDS011;46103;52.076;113.488;2024-03-22T08:30:12;5.10;;;1.23;;
60241;SDS011;46103;52.076;113.488;2024-03-22T08:33:14;10.32;;;1.65;;
60241;SDS011;46103;52.076;113.488;2024-03-22T08:39:19;3.45;;;1.33;;
60241;SDS011;46103;52.076;113.488;2024-03-22T08:42:24;5.65;;;1.85;;
60241;SDS011;46103;52.076;113.488;2024-03-22T08:45:26;3.65;;;1.30;;
60241;SDS011;46103;52.076;113.488;2024-03-22T08:48:29;4.18;;;1.70;;
60241;SDS011;46103;52.076;113.488;2024-03-22T08:51:31;2.20;;;1.25;;
60241;SDS011;46103;52.076;113.488;2024-03-22T08:54:33;5.18;;;1.40;;
60241;SDS011;46103;52.076;113.488;2024-03-22T09:00:38;3.08;;;1.00;;
60241;SDS011;46103;52.076;113.488;2024-03-22T09:03:40;5.15;;;2.38;;
60241;SDS011;46103;52.076;113.488;2024-03-22T09:06:42;3.92;;;1.63;;
60241;SDS011;46103;52.076;113.488;2024-03-22T09:09:44;2.40;;;0.85;;
60241;SDS011;46103;52.076;113.488;2024-03-22T09:12:47;7.82;;;2.33;;
60241;SDS011;46103;52.076;113.488;2024-03-22T09:15:55;4.68;;;1.42;;
60241;SDS011;46103;52.076;113.488;2024-03-22T09:18:59;3.78;;;1.00;;
60241;SDS011;46103;52.076;113.488;2024-03-22T09:22:01;3.50;;;1.20;;
60241;SDS011;46103;52.076;113.488;2024-03-22T09:25:04;4.07;;;1.20;;
60241;SDS011;46103;52.076;113.488;2024-03-22T09:28:07;2.25;;;1.08;;
60241;SDS011;46103;52.076;113.488;2024-03-22T09:34:12;2.00;;;0.85;;
60241;SDS011;46103;52.076;113.488;2024-03-22T09:37:17;4.13;;;1.40;;
60241;SDS011;46103;52.076;113.488;2024-03-22T09:40:20;4.55;;;2.20;;
60241;SDS011;46103;52.076;113.488;2024-03-22T09:43:22;13.57;;;5.78;;
60241;SDS011;46103;52.076;113.488;2024-03-22T09:46:25;3.00;;;1.40;;
60241;SDS011;46103;52.076;113.488;2024-03-22T09:49:28;4.30;;;1.50;;
60241;SDS011;46103;52.076;113.488;2024-03-22T09:52:31;3.42;;;1.30;;
60241;SDS011;46103;52.076;113.488;2024-03-22T09:55:34;7.72;;;1.73;;
60241;SDS011;46103;52.076;113.488;2024-03-22T09:58:40;4.70;;;2.03;;
60241;SDS011;46103;52.076;113.488;2024-03-22T10:01:45;9.48;;;2.55;;
60241;SDS011;46103;52.076;113.488;2024-03-22T10:04:50;2.97;;;1.00;;
60241;SDS011;46103;52.076;113.488;2024-03-22T10:07:52;2.72;;;0.85;;
60241;SDS011;46103;52.076;113.488;2024-03-22T10:10:56;3.75;;;1.73;;
60241;SDS011;46103;52.076;113.488;2024-03-22T10:13:59;5.25;;;2.30;;
60241;SDS011;46103;52.076;113.488;2024-03-22T10:17:05;6.97;;;2.95;;
60241;SDS011;46103;52.076;113.488;2024-03-22T10:20:06;9.90;;;2.88;;
60241;SDS011;46103;52.076;113.488;2024-03-22T10:23:14;8.60;;;3.92;;
60241;SDS011;46103;52.076;113.488;2024-03-22T10:26:16;13.70;;;5.97;;
60241;SDS011;46103;52.076;113.488;2024-03-22T10:29:19;7.93;;;3.95;;
60241;SDS011;46103;52.076;113.488;2024-03-22T10:35:24;5.43;;;2.42;;
60241;SDS011;46103;52.076;113.488;2024-03-22T10:38:27;6.88;;;2.83;;
60241;SDS011;46103;52.076;113.488;2024-03-22T10:41:30;10.15;;;4.07;;
60241;SDS011;46103;52.076;113.488;2024-03-22T10:44:33;7.35;;;3.47;;
60241;SDS011;46103;52.076;113.488;2024-03-22T10:47:36;6.38;;;3.08;;
60241;SDS011;46103;52.076;113.488;2024-03-22T10:50:40;5.32;;;3.00;;
60241;SDS011;46103;52.076;113.488;2024-03-22T10:53:47;8.00;;;3.80;;
60241;SDS011;46103;52.076;113.488;2024-03-22T10:56:51;6.68;;;3.83;;
60241;SDS011;46103;52.076;113.488;2024-03-22T10:59:56;8.20;;;3.45;;
60241;SDS011;46103;52.076;113.488;2024-03-22T11:03:02;6.90;;;2.60;;
60241;SDS011;46103;52.076;113.488;2024-03-22T11:06:07;7.75;;;3.70;;
60241;SDS011;46103;52.076;113.488;2024-03-22T11:09:10;11.95;;;5.75;;
60241;SDS011;46103;52.076;113.488;2024-03-22T11:12:12;15.57;;;7.25;;
60241;SDS011;46103;52.076;113.488;2024-03-22T11:15:15;17.55;;;7.70;;
60241;SDS011;46103;52.076;113.488;2024-03-22T11:18:22;17.75;;;8.00;;
60241;SDS011;46103;52.076;113.488;2024-03-22T11:21:24;16.70;;;8.98;;
60241;SDS011;46103;52.076;113.488;2024-03-22T11:24:27;11.63;;;6.28;;
60241;SDS011;46103;52.076;113.488;2024-03-22T11:27:34;18.67;;;8.55;;
60241;SDS011;46103;52.076;113.488;2024-03-22T11:30:37;21.90;;;8.40;;
60241;SDS011;46103;52.076;113.488;2024-03-22T11:33:39;23.08;;;10.48;;
60241;SDS011;46103;52.076;113.488;2024-03-22T11:36:43;17.17;;;9.68;;
60241;SDS011;46103;52.076;113.488;2024-03-22T11:39:45;20.20;;;9.73;;
60241;SDS011;46103;52.076;113.488;2024-03-22T11:42:50;17.27;;;9.55;;
60241;SDS011;46103;52.076;113.488;2024-03-22T11:45:54;18.15;;;9.00;;
60241;SDS011;46103;52.076;113.488;2024-03-22T11:48:56;18.35;;;10.45;;
60241;SDS011;46103;52.076;113.488;2024-03-22T11:52:00;16.98;;;7.78;;
60241;SDS011;46103;52.076;113.488;2024-03-22T11:55:04;10.18;;;3.72;;
60241;SDS011;46103;52.076;113.488;2024-03-22T11:58:08;5.45;;;2.15;;
60241;SDS011;46103;52.076;113.488;2024-03-22T12:01:12;4.43;;;1.50;;
60241;SDS011;46103;52.076;113.488;2024-03-22T12:04:14;3.17;;;1.10;;
60241;SDS011;46103;52.076;113.488;2024-03-22T12:07:17;4.13;;;1.42;;
60241;SDS011;46103;52.076;113.488;2024-03-22T12:10:20;3.75;;;1.77;;
60241;SDS011;46103;52.076;113.488;2024-03-22T12:13:22;4.55;;;2.17;;
60241;SDS011;46103;52.076;113.488;2024-03-22T12:16:25;2.70;;;1.13;;
60241;SDS011;46103;52.076;113.488;2024-03-22T12:19:28;2.40;;;0.77;;
60241;SDS011;46103;52.076;113.488;2024-03-22T12:25:33;2.92;;;1.23;;
60241;SDS011;46103;52.076;113.488;2024-03-22T12:28:35;4.28;;;1.20;;
60241;SDS011;46103;52.076;113.488;2024-03-22T12:31:37;4.57;;;1.48;;
60241;SDS011;46103;52.076;113.488;2024-03-22T12:34:40;2.88;;;1.30;;
60241;SDS011;46103;52.076;113.488;2024-03-22T12:37:42;1.48;;;0.50;;
60241;SDS011;46103;52.076;113.488;2024-03-22T12:40:45;1.88;;;0.47;;
60241;SDS011;46103;52.076;113.488;2024-03-22T12:43:47;3.30;;;0.93;;
60241;SDS011;46103;52.076;113.488;2024-03-22T12:46:51;2.58;;;0.80;;
60241;SDS011;46103;52.076;113.488;2024-03-22T12:49:54;5.63;;;1.25;;
60241;SDS011;46103;52.076;113.488;2024-03-22T12:52:56;6.93;;;1.65;;
60241;SDS011;46103;52.076;113.488;2024-03-22T12:55:58;6.00;;;2.22;;
60241;SDS011;46103;52.076;113.488;2024-03-22T12:59:06;4.38;;;1.17;;
60241;SDS011;46103;52.076;113.488;2024-03-22T13:02:08;6.93;;;2.63;;
60241;SDS011;46103;52.076;113.488;2024-03-22T13:05:10;4.93;;;1.95;;
60241;SDS011;46103;52.076;113.488;2024-03-22T13:08:13;5.80;;;2.33;;
60241;SDS011;46103;52.076;113.488;2024-03-22T13:11:15;5.13;;;1.95;;
60241;SDS011;46103;52.076;113.488;2024-03-22T13:14:19;6.57;;;2.10;;
60241;SDS011;46103;52.076;113.488;2024-03-22T13:17:20;7.40;;;2.30;;
60241;SDS011;46103;52.076;113.488;2024-03-22T13:23:25;3.63;;;0.95;;
60241;SDS011;46103;52.076;113.488;2024-03-22T13:26:28;3.65;;;1.35;;
60241;SDS011;46103;52.076;113.488;2024-03-22T13:29:29;4.88;;;1.45;;
60241;SDS011;46103;52.076;113.488;2024-03-22T13:32:32;2.83;;;0.85;;
60241;SDS011;46103;52.076;113.488;2024-03-22T13:35:34;3.97;;;1.33;;
60241;SDS011;46103;52.076;113.488;2024-03-22T13:38:37;3.80;;;1.00;;
60241;SDS011;46103;52.076;113.488;2024-03-22T13:41:39;2.53;;;0.95;;
60241;SDS011;46103;52.076;113.488;2024-03-22T13:44:41;2.63;;;0.50;;
60241;SDS011;46103;52.076;113.488;2024-03-22T13:47:44;2.45;;;0.68;;
60241;SDS011;46103;52.076;113.488;2024-03-22T13:50:46;4.90;;;1.38;;
60241;SDS011;46103;52.076;113.488;2024-03-22T13:53:48;0.85;;;0.30;;
60241;SDS011;46103;52.076;113.488;2024-03-22T13:56:51;2.15;;;0.45;;
60241;SDS011;46103;52.076;113.488;2024-03-22T13:59:54;1.88;;;0.52;;
60241;SDS011;46103;52.076;113.488;2024-03-22T14:02:56;3.33;;;0.80;;
60241;SDS011;46103;52.076;113.488;2024-03-22T14:05:58;1.38;;;0.35;;
60241;SDS011;46103;52.076;113.488;2024-03-22T14:09:00;2.10;;;0.55;;
60241;SDS011;46103;52.076;113.488;2024-03-22T14:12:04;1.83;;;0.38;;
60241;SDS011;46103;52.076;113.488;2024-03-22T14:15:08;6.40;;;0.85;;
60241;SDS011;46103;52.076;113.488;2024-03-22T14:18:11;5.03;;;1.33;;
60241;SDS011;46103;52.076;113.488;2024-03-22T14:21:13;1.92;;;0.60;;
60241;SDS011;46103;52.076;113.488;2024-03-22T14:24:20;3.35;;;1.08;;
60241;SDS011;46103;52.076;113.488;2024-03-22T14:27:22;4.22;;;1.58;;
60241;SDS011;46103;52.076;113.488;2024-03-22T14:30:26;3.38;;;0.85;;
60241;SDS011;46103;52.076;113.488;2024-03-22T14:33:28;3.53;;;0.98;;
60241;SDS011;46103;52.076;113.488;2024-03-22T14:36:31;0.90;;;0.30;;
60241;SDS011;46103;52.076;113.488;2024-03-22T14:42:37;0.40;;;0.20;;
60241;SDS011;46103;52.076;113.488;2024-03-22T14:45:40;3.05;;;0.30;;
60241;SDS011;46103;52.076;113.488;2024-03-22T14:48:42;1.05;;;0.13;;
60241;SDS011;46103;52.076;113.488;2024-03-22T14:51:45;1.08;;;0.30;;
60241;SDS011;46103;52.076;113.488;2024-03-22T14:54:47;1.55;;;0.30;;
60241;SDS011;46103;52.076;113.488;2024-03-22T14:57:50;1.15;;;0.38;;
60241;SDS011;46103;52.076;113.488;2024-03-22T15:00:53;0.90;;;0.30;;
60241;SDS011;46103;52.076;113.488;2024-03-22T15:03:56;1.95;;;0.45;;
60241;SDS011;46103;52.076;113.488;2024-03-22T15:06:58;1.20;;;0.40;;
60241;SDS011;46103;52.076;113.488;2024-03-22T15:10:01;2.17;;;0.40;;
60241;SDS011;46103;52.076;113.488;2024-03-22T15:13:04;1.88;;;0.47;;
60241;SDS011;46103;52.076;113.488;2024-03-22T15:16:08;1.08;;;0.40;;
60241;SDS011;46103;52.076;113.488;2024-03-22T15:19:10;2.30;;;0.35;;
60241;SDS011;46103;52.076;113.488;2024-03-22T15:22:12;1.85;;;0.60;;
60241;SDS011;46103;52.076;113.488;2024-03-22T15:25:17;5.57;;;1.35;;
60241;SDS011;46103;52.076;113.488;2024-03-22T15:28:19;2.70;;;1.05;;
60241;SDS011;46103;52.076;113.488;2024-03-22T15:31:21;4.93;;;1.38;;
60241;SDS011;46103;52.076;113.488;2024-03-22T15:37:27;4.13;;;0.98;;
60241;SDS011;46103;52.076;113.488;2024-03-22T15:40:30;4.47;;;1.08;;
60241;SDS011;46103;52.076;113.488;2024-03-22T15:43:35;2.95;;;0.85;;
60241;SDS011;46103;52.076;113.488;2024-03-22T15:46:38;1.33;;;0.52;;
60241;SDS011;46103;52.076;113.488;2024-03-22T15:49:40;1.45;;;0.50;;
60241;SDS011;46103;52.076;113.488;2024-03-22T15:52:43;1.08;;;0.20;;
60241;SDS011;46103;52.076;113.488;2024-03-22T15:55:47;0.47;;;0.10;;
60241;SDS011;46103;52.076;113.488;2024-03-22T15:58:50;2.38;;;0.57;;
60241;SDS011;46103;52.076;113.488;2024-03-22T16:01:52;1.30;;;0.32;;
60241;SDS011;46103;52.076;113.488;2024-03-22T16:04:55;1.70;;;0.57;;
60241;SDS011;46103;52.076;113.488;2024-03-22T16:07:58;2.90;;;0.80;;
60241;SDS011;46103;52.076;113.488;2024-03-22T16:11:00;4.45;;;1.38;;
60241;SDS011;46103;52.076;113.488;2024-03-22T16:14:02;2.67;;;0.95;;
60241;SDS011;46103;52.076;113.488;2024-03-22T16:17:08;2.30;;;0.50;;
60241;SDS011;46103;52.076;113.488;2024-03-22T16:20:10;1.15;;;0.45;;
60241;SDS011;46103;52.076;113.488;2024-03-22T16:23:14;1.30;;;0.40;;
60241;SDS011;46103;52.076;113.488;2024-03-22T16:26:16;1.90;;;0.55;;
60241;SDS011;46103;52.076;113.488;2024-03-22T16:29:18;1.02;;;0.30;;
60241;SDS011;46103;52.076;113.488;2024-03-22T16:32:25;5.10;;;0.75;;
60241;SDS011;46103;52.076;113.488;2024-03-22T16:35:28;3.30;;;0.82;;
60241;SDS011;46103;52.076;113.488;2024-03-22T16:38:31;4.78;;;0.68;;
60241;SDS011;46103;52.076;113.488;2024-03-22T16:41:33;1.38;;;0.30;;
60241;SDS011;46103;52.076;113.488;2024-03-22T16:44:36;2.22;;;0.28;;
60241;SDS011;46103;52.076;113.488;2024-03-22T16:47:39;2.08;;;0.40;;
60241;SDS011;46103;52.076;113.488;2024-03-22T16:50:43;2.05;;;0.60;;
60241;SDS011;46103;52.076;113.488;2024-03-22T16:53:47;0.98;;;0.30;;
60241;SDS011;46103;52.076;113.488;2024-03-22T16:56:50;1.50;;;0.10;;
60241;SDS011;46103;52.076;113.488;2024-03-22T16:59:54;1.85;;;0.30;;
60241;SDS011;46103;52.076;113.488;2024-03-22T17:02:56;0.85;;;0.15;;
60241;SDS011;46103;52.076;113.488;2024-03-22T17:05:59;1.20;;;0.40;;
60241;SDS011;46103;52.076;113.488;2024-03-22T17:09:01;1.77;;;0.50;;
60241;SDS011;46103;52.076;113.488;2024-03-22T17:12:04;0.73;;;0.20;;
60241;SDS011;46103;52.076;113.488;2024-03-22T17:15:08;0.65;;;0.10;;
60241;SDS011;46103;52.076;113.488;2024-03-22T17:18:11;2.70;;;0.82;;
60241;SDS011;46103;52.076;113.488;2024-03-22T17:21:14;1.17;;;0.47;;
60241;SDS011;46103;52.076;113.488;2024-03-22T17:24:17;3.08;;;0.30;;
60241;SDS011;46103;52.076;113.488;2024-03-22T17:27:19;1.30;;;0.20;;
60241;SDS011;46103;52.076;113.488;2024-03-22T17:30:22;2.05;;;0.40;;
60241;SDS011;46103;52.076;113.488;2024-03-22T17:33:25;0.73;;;0.30;;
60241;SDS011;46103;52.076;113.488;2024-03-22T17:36:27;1.65;;;0.20;;
60241;SDS011;46103;52.076;113.488;2024-03-22T17:39:30;1.02;;;0.30;;
60241;SDS011;46103;52.076;113.488;2024-03-22T17:42:33;0.95;;;0.30;;
60241;SDS011;46103;52.076;113.488;2024-03-22T17:45:35;2.80;;;0.43;;
60241;SDS011;46103;52.076;113.488;2024-03-22T17:51:40;1.98;;;0.50;;
60241;SDS011;46103;52.076;113.488;2024-03-22T17:54:43;0.80;;;0.20;;
60241;SDS011;46103;52.076;113.488;2024-03-22T17:57:45;0.93;;;0.30;;
60241;SDS011;46103;52.076;113.488;2024-03-22T18:00:48;0.82;;;0.20;;
60241;SDS011;46103;52.076;113.488;2024-03-22T18:03:50;0.40;;;0.10;;
60241;SDS011;46103;52.076;113.488;2024-03-22T18:06:53;2.72;;;0.47;;
60241;SDS011;46103;52.076;113.488;2024-03-22T18:09:55;0.88;;;0.10;;
60241;SDS011;46103;52.076;113.488;2024-03-22T18:12:58;2.58;;;0.38;;
60241;SDS011;46103;52.076;113.488;2024-03-22T18:16:00;0.93;;;0.13;;
60241;SDS011;46103;52.076;113.488;2024-03-22T18:19:02;0.95;;;0.20;;
60241;SDS011;46103;52.076;113.488;2024-03-22T18:22:08;1.80;;;0.30;;
60241;SDS011;46103;52.076;113.488;2024-03-22T18:25:11;0.75;;;0.20;;
60241;SDS011;46103;52.076;113.488;2024-03-22T18:28:14;1.00;;;0.40;;
60241;SDS011;46103;52.076;113.488;2024-03-22T18:31:16;0.50;;;0.20;;
60241;SDS011;46103;52.076;113.488;2024-03-22T18:34:21;0.70;;;0.20;;
60241;SDS011;46103;52.076;113.488;2024-03-22T18:37:23;0.68;;;0.10;;
60241;SDS011;46103;52.076;113.488;2024-03-22T18:40:27;1.38;;;0.20;;
60241;SDS011;46103;52.076;113.488;2024-03-22T18:43:30;0.77;;;0.20;;
60241;SDS011;46103;52.076;113.488;2024-03-22T18:46:34;0.45;;;0.15;;